EYVI/VNO METAR and TAF weather

Enter ICAO airport designator
Station Type Date Time Source
EYVI METAR 2018/06/25 02:20 UTC NOAA

EYVI 250220Z 19004KT 5000 BR VCFG SCT001 BKN066 09/09 Q1012 NOSIG


Station Type Date Time Source
EYVI Decoded METAR 2018/06/25 02:20 UTC NOAA

Vilnius, Lithuania (EYVI) 54-38N 025-06E 156M
Jun 24, 2018 - 10:20 PM EDT / 2018.06.25 0220 UTC
Wind: from the S (190 degrees) at 5 MPH (4 KT):0
Visibility: 3 mile(s):0
Sky conditions: mostly cloudy
Weather: mist; fog in the vicinity
Temperature: 48 F (9 C)
Dew Point: 48 F (9 C)
Relative Humidity: 100%
Pressure (altimeter): 29.88 in. Hg (1012 hPa)
ob: EYVI 250220Z 19004KT 5000 BR VCFG SCT001 BKN066 09/09 Q1012 NOSIG
cycle: 2

Station Type Date Time Source
EYVI TAF 2018/06/24 22:30 UTC NOAA

TAF TAF
AMD EYVI 242222Z 2422/2518 VRB04KT 1500 BR BKN005
TEMPO 2422/2504 0600 FG VV002
BECMG 2504/2505 5000 -RA BR BKN005 OVC020
TEMPO 2510/2518 3000 SHRA BKN015CB


Example: see airport list